Abshers, North Carolina
Current Conditions -  °F | °C
As of 5:15 PM on Monday 24 Nov 2014 (Local Time) from KUKF Reporting Station
Thunderstorm Thunderstorm  
Wind Chill: 64°   Ceiling: Unl
Heat Index: 64°   Visibility: 10mi
Dew Point: 52°   Wind: 5mph
Humidity: 64%   Direction: 220°SW
Pressure: 29.82"   Gusts: NA
Location:  36.345°N, 81.0285°W
Report Text: KUKF 242215Z AUTO 22004KT 10SM VCTS CLR 18/11 A2982 RMK AO2 LTG DSNT S
Loading
Personal Weather Stations






























Interactive Weather Map New forecast layout! Learn more

10-Day Weather Forecast

Advertisements
Track Severe Weather on mobile